sensor_id;sensor_type;location;lat;lon;timestamp;P1;durP1;ratioP1;P2;durP2;ratioP2
43606;SDS011;29197;44.788;10.366;2022-10-16T00:01:10;21.75;;;13.52;;
43606;SDS011;29197;44.788;10.366;2022-10-16T00:04:01;17.10;;;11.68;;
43606;SDS011;29197;44.788;10.366;2022-10-16T00:06:51;18.08;;;13.20;;
43606;SDS011;29197;44.788;10.366;2022-10-16T00:09:40;20.17;;;12.55;;
43606;SDS011;29197;44.788;10.366;2022-10-16T00:12:29;16.45;;;11.88;;
43606;SDS011;29197;44.788;10.366;2022-10-16T00:15:19;23.15;;;13.35;;
43606;SDS011;29197;44.788;10.366;2022-10-16T00:18:09;21.23;;;12.55;;
43606;SDS011;29197;44.788;10.366;2022-10-16T00:21:01;15.32;;;10.98;;
43606;SDS011;29197;44.788;10.366;2022-10-16T00:23:51;19.33;;;11.18;;
43606;SDS011;29197;44.788;10.366;2022-10-16T00:26:41;17.10;;;11.10;;
43606;SDS011;29197;44.788;10.366;2022-10-16T00:29:32;18.35;;;11.45;;
43606;SDS011;29197;44.788;10.366;2022-10-16T00:32:21;15.23;;;10.82;;
43606;SDS011;29197;44.788;10.366;2022-10-16T00:35:12;22.48;;;13.50;;
43606;SDS011;29197;44.788;10.366;2022-10-16T00:38:01;18.15;;;12.38;;
43606;SDS011;29197;44.788;10.366;2022-10-16T00:40:51;18.85;;;11.93;;
43606;SDS011;29197;44.788;10.366;2022-10-16T00:43:40;23.08;;;14.10;;
43606;SDS011;29197;44.788;10.366;2022-10-16T00:46:33;19.23;;;12.07;;
43606;SDS011;29197;44.788;10.366;2022-10-16T00:49:26;27.83;;;15.55;;
43606;SDS011;29197;44.788;10.366;2022-10-16T00:52:17;25.65;;;14.35;;
43606;SDS011;29197;44.788;10.366;2022-10-16T00:55:08;20.67;;;13.55;;
43606;SDS011;29197;44.788;10.366;2022-10-16T00:57:58;24.05;;;14.55;;
43606;SDS011;29197;44.788;10.366;2022-10-16T01:00:48;22.63;;;14.50;;
43606;SDS011;29197;44.788;10.366;2022-10-16T01:03:37;27.63;;;15.60;;
43606;SDS011;29197;44.788;10.366;2022-10-16T01:06:28;22.38;;;14.73;;
43606;SDS011;29197;44.788;10.366;2022-10-16T01:09:27;23.23;;;14.07;;
43606;SDS011;29197;44.788;10.366;2022-10-16T01:12:23;20.60;;;15.05;;
43606;SDS011;29197;44.788;10.366;2022-10-16T01:15:23;25.80;;;16.10;;
43606;SDS011;29197;44.788;10.366;2022-10-16T01:18:16;26.58;;;14.30;;
43606;SDS011;29197;44.788;10.366;2022-10-16T01:21:12;17.95;;;11.90;;
43606;SDS011;29197;44.788;10.366;2022-10-16T01:24:06;21.63;;;13.90;;
43606;SDS011;29197;44.788;10.366;2022-10-16T01:27:13;19.58;;;12.05;;
43606;SDS011;29197;44.788;10.366;2022-10-16T01:30:07;24.02;;;13.07;;
43606;SDS011;29197;44.788;10.366;2022-10-16T01:33:02;21.23;;;13.93;;
43606;SDS011;29197;44.788;10.366;2022-10-16T01:35:58;24.05;;;14.63;;
43606;SDS011;29197;44.788;10.366;2022-10-16T01:38:51;24.77;;;13.35;;
43606;SDS011;29197;44.788;10.366;2022-10-16T01:41:44;20.23;;;13.93;;
43606;SDS011;29197;44.788;10.366;2022-10-16T01:44:37;19.60;;;13.07;;
43606;SDS011;29197;44.788;10.366;2022-10-16T01:47:29;17.63;;;11.88;;
43606;SDS011;29197;44.788;10.366;2022-10-16T01:50:20;24.27;;;14.05;;
43606;SDS011;29197;44.788;10.366;2022-10-16T01:53:11;18.90;;;12.27;;
43606;SDS011;29197;44.788;10.366;2022-10-16T01:56:03;24.88;;;13.52;;
43606;SDS011;29197;44.788;10.366;2022-10-16T01:58:55;20.98;;;13.90;;
43606;SDS011;29197;44.788;10.366;2022-10-16T02:01:49;22.33;;;12.90;;
43606;SDS011;29197;44.788;10.366;2022-10-16T02:04:43;23.42;;;13.90;;
43606;SDS011;29197;44.788;10.366;2022-10-16T02:07:34;20.42;;;14.38;;
43606;SDS011;29197;44.788;10.366;2022-10-16T02:10:23;17.40;;;12.50;;
43606;SDS011;29197;44.788;10.366;2022-10-16T02:13:13;20.95;;;12.98;;
43606;SDS011;29197;44.788;10.366;2022-10-16T02:16:05;19.50;;;12.57;;
43606;SDS011;29197;44.788;10.366;2022-10-16T02:18:57;22.63;;;13.95;;
43606;SDS011;29197;44.788;10.366;2022-10-16T02:21:48;19.40;;;14.00;;
43606;SDS011;29197;44.788;10.366;2022-10-16T02:24:40;21.98;;;12.45;;
43606;SDS011;29197;44.788;10.366;2022-10-16T02:27:38;21.17;;;13.20;;
43606;SDS011;29197;44.788;10.366;2022-10-16T02:30:34;21.58;;;13.48;;
43606;SDS011;29197;44.788;10.366;2022-10-16T02:33:26;17.17;;;11.82;;
43606;SDS011;29197;44.788;10.366;2022-10-16T02:36:18;20.33;;;13.60;;
43606;SDS011;29197;44.788;10.366;2022-10-16T02:39:08;18.77;;;11.75;;
43606;SDS011;29197;44.788;10.366;2022-10-16T02:41:59;20.33;;;13.32;;
43606;SDS011;29197;44.788;10.366;2022-10-16T02:44:48;18.83;;;13.10;;
43606;SDS011;29197;44.788;10.366;2022-10-16T02:47:37;24.85;;;14.55;;
43606;SDS011;29197;44.788;10.366;2022-10-16T02:50:26;20.50;;;14.27;;
43606;SDS011;29197;44.788;10.366;2022-10-16T02:53:17;21.70;;;13.68;;
43606;SDS011;29197;44.788;10.366;2022-10-16T02:56:06;22.63;;;14.25;;
43606;SDS011;29197;44.788;10.366;2022-10-16T02:58:56;23.50;;;15.20;;
43606;SDS011;29197;44.788;10.366;2022-10-16T03:01:45;18.63;;;12.80;;
43606;SDS011;29197;44.788;10.366;2022-10-16T03:04:34;23.20;;;12.77;;
43606;SDS011;29197;44.788;10.366;2022-10-16T03:07:23;23.60;;;13.48;;
43606;SDS011;29197;44.788;10.366;2022-10-16T03:10:15;21.38;;;14.32;;
43606;SDS011;29197;44.788;10.366;2022-10-16T03:13:04;22.10;;;13.82;;
43606;SDS011;29197;44.788;10.366;2022-10-16T03:15:53;22.23;;;14.45;;
43606;SDS011;29197;44.788;10.366;2022-10-16T03:18:42;22.25;;;13.02;;
43606;SDS011;29197;44.788;10.366;2022-10-16T03:21:31;19.83;;;13.25;;
43606;SDS011;29197;44.788;10.366;2022-10-16T03:24:20;16.48;;;11.15;;
43606;SDS011;29197;44.788;10.366;2022-10-16T03:27:11;19.80;;;14.02;;
43606;SDS011;29197;44.788;10.366;2022-10-16T03:30:00;19.85;;;13.27;;
43606;SDS011;29197;44.788;10.366;2022-10-16T03:32:49;20.60;;;13.95;;
43606;SDS011;29197;44.788;10.366;2022-10-16T03:35:41;23.08;;;15.70;;
43606;SDS011;29197;44.788;10.366;2022-10-16T03:38:30;23.33;;;15.18;;
43606;SDS011;29197;44.788;10.366;2022-10-16T03:41:19;19.85;;;14.10;;
43606;SDS011;29197;44.788;10.366;2022-10-16T03:44:10;18.98;;;13.73;;
43606;SDS011;29197;44.788;10.366;2022-10-16T03:46:59;20.88;;;14.73;;
43606;SDS011;29197;44.788;10.366;2022-10-16T03:49:48;23.98;;;14.13;;
43606;SDS011;29197;44.788;10.366;2022-10-16T03:52:37;21.13;;;13.73;;
43606;SDS011;29197;44.788;10.366;2022-10-16T03:55:26;19.38;;;13.38;;
43606;SDS011;29197;44.788;10.366;2022-10-16T03:58:15;24.83;;;13.63;;
43606;SDS011;29197;44.788;10.366;2022-10-16T04:01:06;20.60;;;13.70;;
43606;SDS011;29197;44.788;10.366;2022-10-16T04:03:56;19.85;;;14.52;;
43606;SDS011;29197;44.788;10.366;2022-10-16T04:06:45;21.48;;;13.63;;
43606;SDS011;29197;44.788;10.366;2022-10-16T04:09:35;16.52;;;12.00;;
43606;SDS011;29197;44.788;10.366;2022-10-16T04:12:24;18.75;;;11.77;;
43606;SDS011;29197;44.788;10.366;2022-10-16T04:15:13;14.63;;;10.85;;
43606;SDS011;29197;44.788;10.366;2022-10-16T04:18:04;16.38;;;9.80;;
43606;SDS011;29197;44.788;10.366;2022-10-16T04:20:54;17.63;;;10.00;;
43606;SDS011;29197;44.788;10.366;2022-10-16T04:23:44;15.68;;;9.75;;
43606;SDS011;29197;44.788;10.366;2022-10-16T04:26:33;13.32;;;9.45;;
43606;SDS011;29197;44.788;10.366;2022-10-16T04:29:22;13.50;;;8.43;;
43606;SDS011;29197;44.788;10.366;2022-10-16T04:32:11;9.10;;;6.40;;
43606;SDS011;29197;44.788;10.366;2022-10-16T04:35:02;15.55;;;7.20;;
43606;SDS011;29197;44.788;10.366;2022-10-16T04:37:52;8.13;;;5.97;;
43606;SDS011;29197;44.788;10.366;2022-10-16T04:40:41;11.15;;;6.25;;
43606;SDS011;29197;44.788;10.366;2022-10-16T04:43:30;9.93;;;7.30;;
43606;SDS011;29197;44.788;10.366;2022-10-16T04:46:19;11.82;;;7.63;;
43606;SDS011;29197;44.788;10.366;2022-10-16T04:49:09;10.88;;;6.93;;
43606;SDS011;29197;44.788;10.366;2022-10-16T04:52:00;8.38;;;6.68;;
43606;SDS011;29197;44.788;10.366;2022-10-16T04:54:48;6.90;;;6.20;;
43606;SDS011;29197;44.788;10.366;2022-10-16T04:57:38;8.35;;;5.47;;
43606;SDS011;29197;44.788;10.366;2022-10-16T05:00:27;7.53;;;4.90;;
43606;SDS011;29197;44.788;10.366;2022-10-16T05:03:16;7.13;;;5.30;;
43606;SDS011;29197;44.788;10.366;2022-10-16T05:06:06;7.97;;;5.28;;
43606;SDS011;29197;44.788;10.366;2022-10-16T05:08:57;7.70;;;5.10;;
43606;SDS011;29197;44.788;10.366;2022-10-16T05:11:46;7.78;;;5.40;;
43606;SDS011;29197;44.788;10.366;2022-10-16T05:14:35;5.35;;;4.60;;
43606;SDS011;29197;44.788;10.366;2022-10-16T05:17:24;9.73;;;4.65;;
43606;SDS011;29197;44.788;10.366;2022-10-16T05:20:14;8.88;;;4.95;;
43606;SDS011;29197;44.788;10.366;2022-10-16T05:23:02;9.45;;;5.80;;
43606;SDS011;29197;44.788;10.366;2022-10-16T05:25:54;9.95;;;5.55;;
43606;SDS011;29197;44.788;10.366;2022-10-16T05:28:45;8.00;;;4.70;;
43606;SDS011;29197;44.788;10.366;2022-10-16T05:31:35;8.20;;;5.35;;
43606;SDS011;29197;44.788;10.366;2022-10-16T05:34:24;6.88;;;4.25;;
43606;SDS011;29197;44.788;10.366;2022-10-16T05:37:14;8.40;;;5.20;;
43606;SDS011;29197;44.788;10.366;2022-10-16T05:40:03;6.70;;;4.85;;
43606;SDS011;29197;44.788;10.366;2022-10-16T05:42:56;11.65;;;5.28;;
43606;SDS011;29197;44.788;10.366;2022-10-16T05:45:45;7.40;;;4.60;;
43606;SDS011;29197;44.788;10.366;2022-10-16T05:48:42;6.13;;;4.80;;
43606;SDS011;29197;44.788;10.366;2022-10-16T05:51:32;6.50;;;4.43;;
43606;SDS011;29197;44.788;10.366;2022-10-16T05:54:21;5.93;;;4.68;;
43606;SDS011;29197;44.788;10.366;2022-10-16T05:57:10;8.88;;;5.00;;
43606;SDS011;29197;44.788;10.366;2022-10-16T06:00:01;9.25;;;4.70;;
43606;SDS011;29197;44.788;10.366;2022-10-16T06:02:51;5.88;;;3.97;;
43606;SDS011;29197;44.788;10.366;2022-10-16T06:05:41;6.50;;;4.63;;
43606;SDS011;29197;44.788;10.366;2022-10-16T06:08:31;9.68;;;4.40;;
43606;SDS011;29197;44.788;10.366;2022-10-16T06:11:20;7.07;;;5.00;;
43606;SDS011;29197;44.788;10.366;2022-10-16T06:14:10;7.43;;;4.68;;
43606;SDS011;29197;44.788;10.366;2022-10-16T06:17:01;9.25;;;5.55;;
43606;SDS011;29197;44.788;10.366;2022-10-16T06:19:50;7.90;;;5.47;;
43606;SDS011;29197;44.788;10.366;2022-10-16T06:22:39;10.23;;;6.13;;
43606;SDS011;29197;44.788;10.366;2022-10-16T06:25:29;11.52;;;6.28;;
43606;SDS011;29197;44.788;10.366;2022-10-16T06:28:18;11.15;;;6.97;;
43606;SDS011;29197;44.788;10.366;2022-10-16T06:31:07;10.55;;;6.63;;
43606;SDS011;29197;44.788;10.366;2022-10-16T06:33:59;11.35;;;6.68;;
43606;SDS011;29197;44.788;10.366;2022-10-16T06:36:48;14.25;;;8.15;;
43606;SDS011;29197;44.788;10.366;2022-10-16T06:39:37;14.43;;;6.85;;
43606;SDS011;29197;44.788;10.366;2022-10-16T06:42:26;12.82;;;8.00;;
43606;SDS011;29197;44.788;10.366;2022-10-16T06:45:15;10.68;;;7.57;;
43606;SDS011;29197;44.788;10.366;2022-10-16T06:48:05;11.10;;;7.95;;
43606;SDS011;29197;44.788;10.366;2022-10-16T06:50:59;14.07;;;7.68;;
43606;SDS011;29197;44.788;10.366;2022-10-16T06:53:51;13.13;;;7.93;;
43606;SDS011;29197;44.788;10.366;2022-10-16T06:56:50;12.32;;;7.40;;
43606;SDS011;29197;44.788;10.366;2022-10-16T06:59:41;12.02;;;6.90;;
43606;SDS011;29197;44.788;10.366;2022-10-16T07:02:32;11.18;;;6.65;;
43606;SDS011;29197;44.788;10.366;2022-10-16T07:05:22;9.77;;;7.28;;
43606;SDS011;29197;44.788;10.366;2022-10-16T07:08:13;13.80;;;7.40;;
43606;SDS011;29197;44.788;10.366;2022-10-16T07:11:03;10.32;;;7.10;;
43606;SDS011;29197;44.788;10.366;2022-10-16T07:13:54;12.20;;;7.35;;
43606;SDS011;29197;44.788;10.366;2022-10-16T07:16:43;12.23;;;7.47;;
43606;SDS011;29197;44.788;10.366;2022-10-16T07:19:32;16.50;;;8.38;;
43606;SDS011;29197;44.788;10.366;2022-10-16T07:22:21;9.85;;;7.10;;
43606;SDS011;29197;44.788;10.366;2022-10-16T07:25:13;9.40;;;6.55;;
43606;SDS011;29197;44.788;10.366;2022-10-16T07:28:02;9.60;;;6.95;;
43606;SDS011;29197;44.788;10.366;2022-10-16T07:30:51;11.70;;;6.85;;
43606;SDS011;29197;44.788;10.366;2022-10-16T07:33:40;13.77;;;7.43;;
43606;SDS011;29197;44.788;10.366;2022-10-16T07:36:31;9.35;;;6.18;;
43606;SDS011;29197;44.788;10.366;2022-10-16T07:39:21;8.10;;;6.25;;
43606;SDS011;29197;44.788;10.366;2022-10-16T07:42:11;10.88;;;6.22;;
43606;SDS011;29197;44.788;10.366;2022-10-16T07:45:00;11.75;;;5.78;;
43606;SDS011;29197;44.788;10.366;2022-10-16T07:47:50;10.10;;;6.35;;
43606;SDS011;29197;44.788;10.366;2022-10-16T07:50:39;8.50;;;5.38;;
43606;SDS011;29197;44.788;10.366;2022-10-16T07:53:29;8.45;;;6.15;;
43606;SDS011;29197;44.788;10.366;2022-10-16T07:56:19;8.40;;;5.30;;
43606;SDS011;29197;44.788;10.366;2022-10-16T07:59:10;14.80;;;6.65;;
43606;SDS011;29197;44.788;10.366;2022-10-16T08:02:00;8.60;;;6.45;;
43606;SDS011;29197;44.788;10.366;2022-10-16T08:04:49;10.05;;;5.78;;
43606;SDS011;29197;44.788;10.366;2022-10-16T08:07:39;8.40;;;6.45;;
43606;SDS011;29197;44.788;10.366;2022-10-16T08:10:28;11.70;;;6.50;;
43606;SDS011;29197;44.788;10.366;2022-10-16T08:13:18;16.90;;;8.60;;
43606;SDS011;29197;44.788;10.366;2022-10-16T08:16:10;22.58;;;9.63;;
43606;SDS011;29197;44.788;10.366;2022-10-16T08:19:00;20.95;;;13.07;;
43606;SDS011;29197;44.788;10.366;2022-10-16T08:21:49;18.75;;;11.02;;
43606;SDS011;29197;44.788;10.366;2022-10-16T08:24:38;18.23;;;10.95;;
43606;SDS011;29197;44.788;10.366;2022-10-16T08:27:30;16.92;;;10.95;;
43606;SDS011;29197;44.788;10.366;2022-10-16T08:30:20;21.83;;;12.07;;
43606;SDS011;29197;44.788;10.366;2022-10-16T08:33:12;21.25;;;13.30;;
43606;SDS011;29197;44.788;10.366;2022-10-16T08:36:02;25.13;;;14.50;;
43606;SDS011;29197;44.788;10.366;2022-10-16T08:38:51;27.15;;;15.27;;
43606;SDS011;29197;44.788;10.366;2022-10-16T18:51:29;24.88;;;15.35;;
43606;SDS011;29197;44.788;10.366;2022-10-16T18:54:19;22.42;;;13.02;;
43606;SDS011;29197;44.788;10.366;2022-10-16T18:57:08;20.95;;;12.40;;
43606;SDS011;29197;44.788;10.366;2022-10-16T18:59:57;17.13;;;11.50;;
43606;SDS011;29197;44.788;10.366;2022-10-16T19:02:46;16.98;;;11.95;;
43606;SDS011;29197;44.788;10.366;2022-10-16T19:05:36;15.38;;;10.20;;
43606;SDS011;29197;44.788;10.366;2022-10-16T19:08:26;16.55;;;12.13;;
43606;SDS011;29197;44.788;10.366;2022-10-16T19:11:18;20.45;;;12.65;;
43606;SDS011;29197;44.788;10.366;2022-10-16T19:14:08;24.98;;;14.68;;
43606;SDS011;29197;44.788;10.366;2022-10-16T19:16:57;23.25;;;14.75;;
43606;SDS011;29197;44.788;10.366;2022-10-16T19:19:46;20.30;;;14.30;;
43606;SDS011;29197;44.788;10.366;2022-10-16T19:22:36;22.45;;;13.93;;
43606;SDS011;29197;44.788;10.366;2022-10-16T19:25:41;19.05;;;13.48;;
43606;SDS011;29197;44.788;10.366;2022-10-16T19:28:30;18.88;;;12.95;;
43606;SDS011;29197;44.788;10.366;2022-10-16T19:31:21;22.77;;;15.13;;
43606;SDS011;29197;44.788;10.366;2022-10-16T19:34:12;19.70;;;13.75;;
43606;SDS011;29197;44.788;10.366;2022-10-16T19:37:01;21.90;;;14.70;;
43606;SDS011;29197;44.788;10.366;2022-10-16T19:39:51;22.43;;;14.20;;
43606;SDS011;29197;44.788;10.366;2022-10-16T19:42:42;25.30;;;15.80;;
43606;SDS011;29197;44.788;10.366;2022-10-16T19:45:32;21.73;;;13.45;;
43606;SDS011;29197;44.788;10.366;2022-10-16T19:48:22;18.92;;;12.07;;
43606;SDS011;29197;44.788;10.366;2022-10-16T19:51:11;20.48;;;13.23;;
43606;SDS011;29197;44.788;10.366;2022-10-16T19:54:03;23.80;;;14.68;;
43606;SDS011;29197;44.788;10.366;2022-10-16T19:56:53;22.83;;;14.23;;
43606;SDS011;29197;44.788;10.366;2022-10-16T19:59:50;21.75;;;14.70;;
43606;SDS011;29197;44.788;10.366;2022-10-16T20:02:39;22.90;;;14.40;;
43606;SDS011;29197;44.788;10.366;2022-10-16T20:05:28;19.70;;;13.57;;
43606;SDS011;29197;44.788;10.366;2022-10-16T20:08:17;22.83;;;13.63;;
43606;SDS011;29197;44.788;10.366;2022-10-16T20:11:08;25.60;;;13.98;;
43606;SDS011;29197;44.788;10.366;2022-10-16T20:14:00;23.42;;;15.80;;
43606;SDS011;29197;44.788;10.366;2022-10-16T20:16:51;21.58;;;14.13;;
43606;SDS011;29197;44.788;10.366;2022-10-16T20:19:40;22.55;;;14.45;;
43606;SDS011;29197;44.788;10.366;2022-10-16T20:22:29;24.35;;;15.88;;
43606;SDS011;29197;44.788;10.366;2022-10-16T20:25:18;23.67;;;15.70;;
43606;SDS011;29197;44.788;10.366;2022-10-16T20:28:08;25.77;;;16.05;;
43606;SDS011;29197;44.788;10.366;2022-10-16T20:31:04;27.33;;;16.02;;
43606;SDS011;29197;44.788;10.366;2022-10-16T20:33:56;20.35;;;13.10;;
43606;SDS011;29197;44.788;10.366;2022-10-16T20:36:46;22.02;;;14.82;;
43606;SDS011;29197;44.788;10.366;2022-10-16T20:39:37;25.15;;;15.95;;
43606;SDS011;29197;44.788;10.366;2022-10-16T20:42:26;20.85;;;14.45;;
43606;SDS011;29197;44.788;10.366;2022-10-16T20:45:15;25.45;;;16.67;;
43606;SDS011;29197;44.788;10.366;2022-10-16T20:48:05;25.48;;;14.93;;
43606;SDS011;29197;44.788;10.366;2022-10-16T20:50:56;29.30;;;15.50;;
43606;SDS011;29197;44.788;10.366;2022-10-16T20:53:47;18.98;;;12.70;;
43606;SDS011;29197;44.788;10.366;2022-10-16T20:56:40;26.35;;;16.13;;
43606;SDS011;29197;44.788;10.366;2022-10-16T20:59:29;25.50;;;13.88;;
43606;SDS011;29197;44.788;10.366;2022-10-16T21:02:19;18.98;;;12.00;;
43606;SDS011;29197;44.788;10.366;2022-10-16T21:05:09;23.17;;;14.85;;
43606;SDS011;29197;44.788;10.366;2022-10-16T21:08:00;23.70;;;15.10;;
43606;SDS011;29197;44.788;10.366;2022-10-16T21:10:49;23.60;;;14.25;;
43606;SDS011;29197;44.788;10.366;2022-10-16T21:13:39;21.00;;;13.05;;
43606;SDS011;29197;44.788;10.366;2022-10-16T21:16:28;22.83;;;14.13;;
43606;SDS011;29197;44.788;10.366;2022-10-16T21:19:17;23.10;;;14.20;;
43606;SDS011;29197;44.788;10.366;2022-10-16T21:22:06;19.05;;;12.80;;
43606;SDS011;29197;44.788;10.366;2022-10-16T21:24:57;18.35;;;12.48;;
43606;SDS011;29197;44.788;10.366;2022-10-16T21:27:46;20.55;;;13.88;;
43606;SDS011;29197;44.788;10.366;2022-10-16T21:30:35;19.65;;;13.60;;
43606;SDS011;29197;44.788;10.366;2022-10-16T21:33:25;25.25;;;15.55;;
43606;SDS011;29197;44.788;10.366;2022-10-16T21:36:14;22.15;;;14.18;;
43606;SDS011;29197;44.788;10.366;2022-10-16T21:39:05;21.65;;;13.95;;
43606;SDS011;29197;44.788;10.366;2022-10-16T21:41:57;24.13;;;15.48;;
43606;SDS011;29197;44.788;10.366;2022-10-16T21:44:46;24.95;;;15.73;;
43606;SDS011;29197;44.788;10.366;2022-10-16T21:47:35;23.30;;;14.77;;
43606;SDS011;29197;44.788;10.366;2022-10-16T21:50:24;24.52;;;14.98;;
43606;SDS011;29197;44.788;10.366;2022-10-16T21:53:14;23.48;;;15.27;;
43606;SDS011;29197;44.788;10.366;2022-10-16T21:56:03;23.15;;;15.43;;
43606;SDS011;29197;44.788;10.366;2022-10-16T21:58:53;24.63;;;15.32;;
43606;SDS011;29197;44.788;10.366;2022-10-16T22:01:42;27.73;;;16.52;;
43606;SDS011;29197;44.788;10.366;2022-10-16T22:04:31;19.67;;;13.40;;
43606;SDS011;29197;44.788;10.366;2022-10-16T22:07:20;22.88;;;14.50;;
43606;SDS011;29197;44.788;10.366;2022-10-16T22:10:10;22.63;;;14.40;;
43606;SDS011;29197;44.788;10.366;2022-10-16T22:12:59;22.42;;;15.30;;
43606;SDS011;29197;44.788;10.366;2022-10-16T22:15:50;19.83;;;14.13;;
43606;SDS011;29197;44.788;10.366;2022-10-16T22:18:39;24.35;;;14.77;;
43606;SDS011;29197;44.788;10.366;2022-10-16T22:21:28;24.02;;;15.27;;
43606;SDS011;29197;44.788;10.366;2022-10-16T22:24:17;24.35;;;16.02;;
43606;SDS011;29197;44.788;10.366;2022-10-16T22:27:07;23.35;;;16.17;;
43606;SDS011;29197;44.788;10.366;2022-10-16T22:29:56;23.40;;;15.20;;
43606;SDS011;29197;44.788;10.366;2022-10-16T22:32:46;22.58;;;14.88;;
43606;SDS011;29197;44.788;10.366;2022-10-16T22:35:35;22.17;;;14.90;;
43606;SDS011;29197;44.788;10.366;2022-10-16T22:38:25;22.80;;;14.32;;
43606;SDS011;29197;44.788;10.366;2022-10-16T22:41:16;21.85;;;14.70;;
43606;SDS011;29197;44.788;10.366;2022-10-16T22:44:04;20.63;;;13.52;;
43606;SDS011;29197;44.788;10.366;2022-10-16T22:46:58;23.98;;;15.68;;
43606;SDS011;29197;44.788;10.366;2022-10-16T22:49:48;22.05;;;13.05;;
43606;SDS011;29197;44.788;10.366;2022-10-16T22:52:38;21.60;;;13.93;;
43606;SDS011;29197;44.788;10.366;2022-10-16T22:55:27;22.10;;;15.38;;
43606;SDS011;29197;44.788;10.366;2022-10-16T22:58:17;17.98;;;13.13;;
43606;SDS011;29197;44.788;10.366;2022-10-16T23:01:09;22.55;;;13.20;;
43606;SDS011;29197;44.788;10.366;2022-10-16T23:03:59;19.88;;;12.98;;
43606;SDS011;29197;44.788;10.366;2022-10-16T23:06:51;16.25;;;11.63;;
43606;SDS011;29197;44.788;10.366;2022-10-16T23:09:40;19.10;;;12.50;;
43606;SDS011;29197;44.788;10.366;2022-10-16T23:12:29;17.50;;;12.32;;
43606;SDS011;29197;44.788;10.366;2022-10-16T23:15:19;22.75;;;15.00;;
43606;SDS011;29197;44.788;10.366;2022-10-16T23:18:08;18.67;;;11.82;;
43606;SDS011;29197;44.788;10.366;2022-10-16T23:20:57;19.27;;;12.48;;
43606;SDS011;29197;44.788;10.366;2022-10-16T23:23:48;18.98;;;12.18;;
43606;SDS011;29197;44.788;10.366;2022-10-16T23:26:39;17.65;;;12.27;;
43606;SDS011;29197;44.788;10.366;2022-10-16T23:29:29;15.20;;;10.77;;
43606;SDS011;29197;44.788;10.366;2022-10-16T23:32:18;15.90;;;11.82;;
43606;SDS011;29197;44.788;10.366;2022-10-16T23:35:08;15.40;;;11.13;;
43606;SDS011;29197;44.788;10.366;2022-10-16T23:37:57;14.98;;;10.85;;
43606;SDS011;29197;44.788;10.366;2022-10-16T23:40:48;16.75;;;11.45;;
43606;SDS011;29197;44.788;10.366;2022-10-16T23:43:37;23.52;;;14.25;;
43606;SDS011;29197;44.788;10.366;2022-10-16T23:46:27;22.80;;;13.80;;
43606;SDS011;29197;44.788;10.366;2022-10-16T23:49:16;21.83;;;14.05;;
43606;SDS011;29197;44.788;10.366;2022-10-16T23:52:05;19.08;;;12.95;;
43606;SDS011;29197;44.788;10.366;2022-10-16T23:54:54;18.80;;;14.30;;
43606;SDS011;29197;44.788;10.366;2022-10-16T23:57:46;19.38;;;11.88;;
